createdAt,value
2023-02-24T00:02:15.328Z,70.91
2023-02-24T00:04:44.253Z,71.21
2023-02-24T00:07:13.122Z,71.27
2023-02-24T00:09:41.612Z,71.24
2023-02-24T00:12:14.443Z,71.21
2023-02-24T00:14:43.963Z,71.21
2023-02-24T00:17:15.311Z,70.93
2023-02-24T00:19:43.871Z,70.63
2023-02-24T00:22:12.938Z,70.64
2023-02-24T00:24:42.277Z,70.66
2023-02-24T00:27:13.331Z,70.32
2023-02-24T00:29:45.945Z,70.05
2023-02-24T00:32:15.064Z,70.08
2023-02-24T00:34:44.924Z,70.21
2023-02-24T00:37:15.603Z,70.53
2023-02-24T00:39:48.211Z,70.72
2023-02-24T00:42:16.903Z,71.25
2023-02-24T00:44:46.972Z,71.58
2023-02-24T00:47:17.009Z,71.73
2023-02-24T00:49:46.091Z,71.96
2023-02-24T00:52:18.524Z,72.27
2023-02-24T00:54:48.844Z,72.55
2023-02-24T00:57:21.685Z,72.80
2023-02-24T00:59:53.476Z,73.05
2023-02-24T01:02:21.874Z,73.09
2023-02-24T01:04:51.659Z,73.19
2023-02-24T01:07:20.118Z,73.02
2023-02-24T01:09:50.072Z,73.08
2023-02-24T01:12:23.946Z,73.09
2023-02-24T01:14:53.299Z,73.07
2023-02-24T01:17:21.935Z,73.27
2023-02-24T01:19:50.456Z,73.18
2023-02-24T01:22:20.193Z,72.84
2023-02-24T01:24:49.167Z,72.71
2023-02-24T01:27:19.610Z,72.46
2023-02-24T01:29:50.062Z,72.35
2023-02-24T01:32:21.030Z,72.04
2023-02-24T01:34:54.299Z,71.74
2023-02-24T01:37:22.822Z,71.72
2023-02-24T01:39:52.084Z,71.71
2023-02-24T01:42:21.752Z,71.72
2023-02-24T01:44:52.143Z,71.71
2023-02-24T01:47:21.354Z,71.64
2023-02-24T01:49:51.288Z,71.71
2023-02-24T01:52:24.414Z,71.74
2023-02-24T01:54:55.444Z,71.70
2023-02-24T01:57:26.520Z,71.98
2023-02-24T01:59:55.337Z,72.08
2023-02-24T02:02:24.023Z,72.12
2023-02-24T02:05:05.530Z,72.19
2023-02-24T02:07:39.166Z,72.49
2023-02-24T02:10:09.430Z,72.73
2023-02-24T02:12:40.691Z,72.94
2023-02-24T02:15:09.094Z,73.04
2023-02-24T02:17:41.110Z,72.99
2023-02-24T02:20:34.113Z,72.71
2023-02-24T02:23:20.789Z,72.69
2023-02-24T02:26:11.032Z,72.52
2023-02-24T02:29:03.199Z,72.65
2023-02-24T02:31:37.581Z,72.72
2023-02-24T02:34:09.131Z,72.54
2023-02-24T02:36:41.067Z,72.26
2023-02-24T02:39:26.404Z,72.15
2023-02-24T02:42:02.320Z,72.31
2023-02-24T02:44:35.916Z,72.41
2023-02-24T02:47:09.672Z,72.34
2023-02-24T02:50:10.529Z,72.41
2023-02-24T02:52:44.073Z,72.62
2023-02-24T02:55:16.203Z,72.48
2023-02-24T02:57:47.542Z,72.82
2023-02-24T03:00:23.478Z,72.87
2023-02-24T03:02:55.488Z,73.09
2023-02-24T03:05:30.377Z,73.29
2023-02-24T03:07:59.530Z,73.76
2023-02-24T03:10:29.420Z,73.86
2023-02-24T03:12:59.042Z,74.05
2023-02-24T03:15:28.728Z,74.23
2023-02-24T03:18:02.858Z,74.35
2023-02-24T03:20:35.640Z,74.53
2023-02-24T03:23:07.530Z,74.75
2023-02-24T03:25:46.848Z,74.93
2023-02-24T03:28:22.873Z,75.00
2023-02-24T03:31:06.953Z,75.07
2023-02-24T03:33:41.150Z,75.40
2023-02-24T03:36:10.116Z,75.53
2023-02-24T03:38:39.426Z,75.93
2023-02-24T03:41:13.637Z,76.18
2023-02-24T03:43:46.919Z,76.40
2023-02-24T03:46:17.127Z,76.84
2023-02-24T03:48:50.225Z,77.18
2023-02-24T03:51:19.513Z,77.37
2023-02-24T03:53:57.051Z,77.57
2023-02-24T03:56:34.854Z,77.61
2023-02-24T03:59:13.144Z,77.94
2023-02-24T04:01:58.449Z,78.12
2023-02-24T04:04:38.032Z,78.38
2023-02-24T04:07:27.739Z,78.64
2023-02-24T04:09:57.301Z,78.85
2023-02-24T04:12:37.929Z,79.02
2023-02-24T04:15:13.440Z,79.41
2023-02-24T04:18:03.353Z,79.44
2023-02-24T04:20:36.420Z,79.81
2023-02-24T04:23:12.514Z,79.80
2023-02-24T04:25:43.303Z,79.75
2023-02-24T04:28:11.758Z,79.67
2023-02-24T04:30:46.417Z,79.78
2023-02-24T04:33:15.572Z,79.68
2023-02-24T04:35:46.086Z,80.00
2023-02-24T04:38:14.832Z,80.25
2023-02-24T04:40:43.246Z,80.56
2023-02-24T04:43:13.140Z,80.97
2023-02-24T04:45:41.744Z,81.54
2023-02-24T04:48:13.446Z,81.97
2023-02-24T04:50:43.193Z,82.49
2023-02-24T04:53:16.327Z,82.96
2023-02-24T04:55:49.223Z,83.14
2023-02-24T04:58:20.145Z,83.54
2023-02-24T05:00:52.813Z,84.00
2023-02-24T05:03:23.408Z,84.61
2023-02-24T05:05:53.286Z,84.71
2023-02-24T05:08:25.068Z,84.72
2023-02-24T05:10:54.362Z,84.70
2023-02-24T05:13:27.470Z,84.81
2023-02-24T05:15:57.209Z,84.78
2023-02-24T05:18:32.428Z,84.77
2023-02-24T05:21:31.623Z,84.91
2023-02-24T05:24:00.066Z,84.82
2023-02-24T05:26:44.499Z,84.92
2023-02-24T05:29:14.974Z,85.01
2023-02-24T05:31:44.637Z,85.29
2023-02-24T05:34:17.324Z,85.29
2023-02-24T05:36:46.758Z,85.26
2023-02-24T05:39:19.400Z,85.22
2023-02-24T05:41:49.160Z,85.12
2023-02-24T05:44:23.496Z,85.01
2023-02-24T05:46:56.881Z,84.96
2023-02-24T05:49:33.176Z,84.98
2023-02-24T05:52:07.638Z,84.93
2023-02-24T05:54:41.417Z,84.73
2023-02-24T05:57:14.379Z,84.83
2023-02-24T05:59:43.004Z,84.84
2023-02-24T06:02:13.404Z,84.87
2023-02-24T06:04:54.164Z,85.04
2023-02-24T06:07:27.245Z,85.11
2023-02-24T06:09:58.335Z,85.44
2023-02-24T06:12:31.964Z,85.41
2023-02-24T06:15:00.586Z,85.28
2023-02-24T06:17:29.852Z,85.19
2023-02-24T06:19:58.329Z,85.01
2023-02-24T06:22:27.734Z,85.13
2023-02-24T06:24:57.677Z,85.18
2023-02-24T06:27:26.061Z,85.44
2023-02-24T06:29:54.936Z,85.60
2023-02-24T06:32:25.963Z,85.68
2023-02-24T06:34:55.446Z,86.07
2023-02-24T06:37:23.819Z,86.14
2023-02-24T06:39:52.159Z,86.09
2023-02-24T06:42:20.608Z,85.90
2023-02-24T06:44:50.504Z,85.73
2023-02-24T06:47:18.772Z,85.56
2023-02-24T06:49:48.081Z,85.46
2023-02-24T06:52:19.143Z,85.54
2023-02-24T06:54:49.852Z,85.67
2023-02-24T06:57:18.515Z,85.45
2023-02-24T06:59:49.145Z,85.35
2023-02-24T07:02:17.859Z,85.15
2023-02-24T07:04:46.430Z,84.72
2023-02-24T07:07:17.573Z,84.25
2023-02-24T07:09:49.231Z,83.89
2023-02-24T07:12:21.235Z,83.23
2023-02-24T07:14:50.638Z,82.36
2023-02-24T07:17:23.494Z,81.93
2023-02-24T07:19:54.734Z,81.46
2023-02-24T07:22:25.401Z,80.97
2023-02-24T07:25:00.798Z,80.63
2023-02-24T07:27:30.279Z,80.58
2023-02-24T07:29:59.484Z,80.45
2023-02-24T07:32:28.494Z,80.10
2023-02-24T07:34:56.727Z,79.74
2023-02-24T07:37:25.041Z,79.25
2023-02-24T07:39:53.565Z,78.91
2023-02-24T07:42:22.640Z,78.39
2023-02-24T07:44:58.916Z,78.32
2023-02-24T07:47:27.609Z,77.98
2023-02-24T07:49:56.675Z,77.92
2023-02-24T07:52:25.407Z,77.86
2023-02-24T07:54:58.778Z,77.81
2023-02-24T07:57:29.012Z,77.74
2023-02-24T07:59:57.296Z,77.20
2023-02-24T08:02:26.962Z,76.77
2023-02-24T08:04:56.002Z,76.14
2023-02-24T08:07:30.617Z,76.44
2023-02-24T08:10:14.590Z,76.62
2023-02-24T08:12:43.206Z,76.60
2023-02-24T08:15:17.657Z,76.15
2023-02-24T08:17:47.646Z,75.84
2023-02-24T08:20:16.874Z,76.26
2023-02-24T08:22:52.370Z,76.05
2023-02-24T08:25:23.788Z,75.77
2023-02-24T08:28:12.140Z,75.63
2023-02-24T08:30:46.291Z,75.89
2023-02-24T08:33:20.781Z,75.98
2023-02-24T08:35:52.829Z,76.12
2023-02-24T08:38:25.931Z,76.76
2023-02-24T08:41:05.118Z,77.33
2023-02-24T08:43:38.731Z,77.63
2023-02-24T08:46:13.753Z,78.26
2023-02-24T08:48:45.218Z,77.96
2023-02-24T08:51:29.307Z,77.67
2023-02-24T08:54:00.092Z,77.50
2023-02-24T08:56:30.360Z,77.02
2023-02-24T08:59:05.782Z,77.12
2023-02-24T09:01:37.353Z,77.24
2023-02-24T09:04:11.642Z,77.32
2023-02-24T09:06:44.492Z,77.37
2023-02-24T09:09:17.769Z,77.35
2023-02-24T09:11:58.246Z,77.64
2023-02-24T09:14:29.235Z,77.78
2023-02-24T09:17:06.674Z,77.66
2023-02-24T09:19:48.468Z,77.80
2023-02-24T09:22:54.101Z,78.01
2023-02-24T09:25:26.259Z,78.52
2023-02-24T09:28:08.505Z,78.63
2023-02-24T09:30:51.448Z,78.72
2023-02-24T09:33:28.280Z,78.54
2023-02-24T09:36:10.418Z,78.53
2023-02-24T09:39:06.451Z,78.45
2023-02-24T09:42:07.778Z,78.76
2023-02-24T09:44:44.690Z,79.09
2023-02-24T09:47:40.156Z,79.21
2023-02-24T09:50:40.697Z,79.16
2023-02-24T09:53:20.037Z,78.83
2023-02-24T09:56:06.926Z,78.75
2023-02-24T09:58:53.379Z,78.53
2023-02-24T10:01:57.480Z,78.23
2023-02-24T10:04:49.431Z,77.77
2023-02-24T10:07:20.678Z,77.24
2023-02-24T10:10:19.890Z,76.98
2023-02-24T10:13:15.053Z,76.72
2023-02-24T10:15:59.297Z,77.04
2023-02-24T10:18:33.798Z,76.91
2023-02-24T10:21:30.960Z,76.88
2023-02-24T10:24:14.612Z,76.83
2023-02-24T10:27:17.236Z,77.21
2023-02-24T10:30:28.189Z,77.08
2023-02-24T10:32:59.123Z,76.88
2023-02-24T10:35:33.861Z,76.65
2023-02-24T10:38:08.765Z,76.73
2023-02-24T10:40:48.397Z,76.70
2023-02-24T10:43:30.239Z,76.61
2023-02-24T10:46:07.389Z,76.43
2023-02-24T10:48:42.800Z,76.26
2023-02-24T10:51:20.538Z,76.42
2023-02-24T10:54:08.454Z,76.67
2023-02-24T10:56:44.411Z,76.98
2023-02-24T10:59:40.767Z,77.11
2023-02-24T11:02:45.978Z,77.47
2023-02-24T11:05:33.224Z,78.04
2023-02-24T11:08:37.044Z,78.04
2023-02-24T11:11:26.130Z,78.18
2023-02-24T11:14:15.163Z,78.18
2023-02-24T11:17:14.448Z,77.96
2023-02-24T11:20:00.301Z,77.46
2023-02-24T11:22:33.820Z,77.49
2023-02-24T11:25:39.813Z,77.56
2023-02-24T11:28:38.015Z,77.53
2023-02-24T11:31:17.245Z,77.22
2023-02-24T11:34:17.139Z,76.77
2023-02-24T11:37:00.271Z,76.35
2023-02-24T11:39:43.953Z,75.92
2023-02-24T11:42:15.202Z,75.88
2023-02-24T11:45:12.828Z,76.01
2023-02-24T11:47:46.658Z,76.13
2023-02-24T11:50:22.804Z,75.90
2023-02-24T11:52:51.640Z,75.64
2023-02-24T11:55:40.501Z,75.77
2023-02-24T11:58:18.752Z,75.55
2023-02-24T12:00:56.982Z,74.71
2023-02-24T12:03:31.097Z,74.35
2023-02-24T12:06:10.053Z,74.43
2023-02-24T12:08:38.853Z,74.75
2023-02-24T12:11:33.766Z,74.67
2023-02-24T12:14:50.701Z,74.84
2023-02-24T12:17:36.553Z,75.22
2023-02-24T12:20:16.737Z,75.63
2023-02-24T12:23:10.965Z,76.11
2023-02-24T12:26:09.192Z,76.67
2023-02-24T12:28:44.343Z,77.18
2023-02-24T12:31:37.797Z,77.85
2023-02-24T12:34:23.874Z,78.47
2023-02-24T12:37:01.575Z,79.18
2023-02-24T12:39:33.424Z,79.84
2023-02-24T12:42:17.015Z,80.52
2023-02-24T12:44:53.409Z,81.34
2023-02-24T12:47:22.784Z,82.35
2023-02-24T12:49:55.638Z,82.98
2023-02-24T12:52:46.229Z,83.76
2023-02-24T12:55:26.782Z,84.40
2023-02-24T12:58:09.584Z,84.83
2023-02-24T13:01:06.225Z,85.42
2023-02-24T13:03:54.455Z,85.87
2023-02-24T13:06:34.219Z,86.56
2023-02-24T13:09:09.411Z,87.27
2023-02-24T13:12:02.021Z,88.25
2023-02-24T13:14:33.440Z,88.90
2023-02-24T13:17:27.231Z,89.83
2023-02-24T13:19:56.210Z,90.56
2023-02-24T13:22:31.331Z,91.19
2023-02-24T13:24:59.837Z,91.67
2023-02-24T13:27:43.620Z,91.96
2023-02-24T13:30:12.311Z,92.45
2023-02-24T13:32:42.499Z,92.95
2023-02-24T13:35:14.117Z,93.41
2023-02-24T13:37:44.400Z,93.85
2023-02-24T13:40:24.155Z,94.38
2023-02-24T13:43:00.718Z,94.64
2023-02-24T13:45:36.518Z,95.38
2023-02-24T13:48:40.694Z,95.77
2023-02-24T13:51:36.332Z,96.48
2023-02-24T13:54:34.725Z,97.05
2023-02-24T13:57:09.550Z,97.46
2023-02-24T14:00:10.297Z,97.92
2023-02-24T14:02:43.044Z,98.11
2023-02-24T14:05:18.694Z,98.57
2023-02-24T14:07:48.299Z,98.82
2023-02-24T14:10:19.271Z,99.15
2023-02-24T14:12:48.269Z,99.36
2023-02-24T14:15:24.716Z,99.75
2023-02-24T14:18:00.927Z,99.97
2023-02-24T14:20:33.686Z,100.00
2023-02-24T14:23:02.783Z,100.00
2023-02-24T14:25:35.189Z,100.00
2023-02-24T14:28:03.673Z,100.00
2023-02-24T14:30:37.670Z,100.00
2023-02-24T14:33:09.010Z,100.00
2023-02-24T14:35:45.711Z,100.00
2023-02-24T14:38:38.405Z,100.00
2023-02-24T14:41:25.868Z,100.00
2023-02-24T14:43:54.245Z,100.00
2023-02-24T14:46:23.280Z,100.00
2023-02-24T14:48:54.432Z,100.00
2023-02-24T14:51:25.943Z,100.00
2023-02-24T14:53:58.251Z,100.00
2023-02-24T14:56:31.791Z,100.00
2023-02-24T14:59:20.333Z,100.00
2023-02-24T15:01:49.610Z,100.00
2023-02-24T15:04:38.140Z,100.00
2023-02-24T15:07:08.286Z,100.00
2023-02-24T15:09:40.856Z,100.00
2023-02-24T15:12:13.658Z,100.00
2023-02-24T15:15:20.477Z,100.00
2023-02-24T15:17:56.914Z,100.00
2023-02-24T15:20:26.694Z,100.00
2023-02-24T15:22:59.968Z,100.00
2023-02-24T15:25:41.858Z,100.00
2023-02-24T15:28:31.475Z,100.00
2023-02-24T15:31:11.002Z,100.00
2023-02-24T15:33:41.898Z,100.00
2023-02-24T15:36:18.486Z,100.00
2023-02-24T15:38:47.163Z,100.00
2023-02-24T15:41:15.670Z,100.00
2023-02-24T15:43:45.716Z,100.00
2023-02-24T15:46:33.377Z,100.00
2023-02-24T15:49:03.441Z,100.00
2023-02-24T15:51:37.872Z,100.00
2023-02-24T15:54:16.964Z,100.00
2023-02-24T15:56:45.449Z,100.00
2023-02-24T15:59:22.100Z,100.00
2023-02-24T16:01:52.371Z,100.00
2023-02-24T16:04:22.064Z,100.00
2023-02-24T16:06:54.947Z,100.00
2023-02-24T16:09:32.563Z,100.00
2023-02-24T16:12:01.642Z,100.00
2023-02-24T16:14:30.057Z,100.00
2023-02-24T16:16:58.817Z,100.00
2023-02-24T16:19:32.461Z,100.00
2023-02-24T16:22:01.100Z,100.00
2023-02-24T16:24:29.434Z,100.00
2023-02-24T16:26:57.816Z,100.00
2023-02-24T16:29:26.044Z,100.00
2023-02-24T16:31:59.001Z,100.00
2023-02-24T16:34:28.288Z,100.00
2023-02-24T16:36:56.790Z,100.00
2023-02-24T16:39:25.343Z,100.00
2023-02-24T16:41:53.825Z,100.00
2023-02-24T16:44:23.407Z,100.00
2023-02-24T16:46:52.013Z,100.00
2023-02-24T16:49:21.226Z,100.00
2023-02-24T16:51:51.440Z,100.00
2023-02-24T16:54:23.793Z,100.00
2023-02-24T16:56:52.600Z,100.00
2023-02-24T16:59:21.028Z,100.00
2023-02-24T17:01:49.661Z,100.00
2023-02-24T17:04:18.102Z,100.00
2023-02-24T17:06:47.485Z,100.00
2023-02-24T17:09:15.997Z,100.00
2023-02-24T17:11:44.816Z,100.00
2023-02-24T17:14:20.284Z,100.00
2023-02-24T17:16:52.005Z,100.00
2023-02-24T17:19:23.254Z,100.00
2023-02-24T17:21:51.702Z,100.00
2023-02-24T17:24:20.121Z,100.00
2023-02-24T17:26:48.833Z,100.00
2023-02-24T17:29:17.055Z,100.00
2023-02-24T17:31:45.849Z,100.00
2023-02-24T17:34:17.250Z,100.00
2023-02-24T17:36:47.738Z,100.00
2023-02-24T17:39:17.435Z,100.00
2023-02-24T17:41:46.016Z,100.00
2023-02-24T17:44:14.512Z,100.00
2023-02-24T17:46:43.726Z,100.00
2023-02-24T17:49:12.280Z,100.00
2023-02-24T17:51:41.700Z,100.00
2023-02-24T17:54:10.123Z,100.00
2023-02-24T17:56:44.006Z,100.00
2023-02-24T17:59:12.739Z,100.00
2023-02-24T18:01:41.105Z,100.00
2023-02-24T18:04:12.637Z,100.00
2023-02-24T18:06:42.204Z,100.00
2023-02-24T18:09:10.372Z,100.00
2023-02-24T18:11:39.113Z,100.00
2023-02-24T18:14:12.466Z,100.00
2023-02-24T18:16:40.962Z,100.00
2023-02-24T18:19:09.861Z,100.00
2023-02-24T18:21:39.535Z,100.00
2023-02-24T18:24:08.730Z,100.00
2023-02-24T18:26:37.098Z,100.00
2023-02-24T18:29:06.515Z,100.00
2023-02-24T18:31:36.254Z,100.00
2023-02-24T18:34:06.466Z,100.00
2023-02-24T18:36:38.066Z,100.00
2023-02-24T18:39:06.812Z,100.00
2023-02-24T18:41:35.249Z,100.00
2023-02-24T18:44:03.982Z,100.00
2023-02-24T18:46:32.653Z,100.00
2023-02-24T18:49:01.624Z,100.00
2023-02-24T18:51:30.105Z,100.00
2023-02-24T18:54:00.621Z,100.00
2023-02-24T18:56:31.221Z,100.00
2023-02-24T18:59:04.671Z,100.00
2023-02-24T19:01:38.838Z,100.00
2023-02-24T19:04:08.110Z,100.00
2023-02-24T19:06:37.124Z,100.00
2023-02-24T19:09:10.781Z,100.00
2023-02-24T19:11:39.622Z,100.00
2023-02-24T19:14:11.989Z,100.00
2023-02-24T19:16:40.675Z,100.00
2023-02-24T19:19:16.976Z,100.00
2023-02-24T19:21:45.760Z,100.00
2023-02-24T19:24:16.188Z,100.00
2023-02-24T19:26:46.004Z,100.00
2023-02-24T19:29:17.390Z,100.00
2023-02-24T19:31:48.173Z,100.00
2023-02-24T19:34:16.651Z,100.00
2023-02-24T19:36:45.183Z,100.00
2023-02-24T19:39:16.303Z,100.00
2023-02-24T19:41:44.847Z,100.00
2023-02-24T19:44:17.977Z,100.00
2023-02-24T19:46:47.823Z,100.00
2023-02-24T19:49:16.671Z,100.00
2023-02-24T19:51:48.076Z,100.00
2023-02-24T19:54:17.010Z,100.00
2023-02-24T19:56:45.579Z,100.00
2023-02-24T19:59:14.175Z,100.00
2023-02-24T20:01:42.633Z,100.00
2023-02-24T20:04:13.060Z,100.00
2023-02-24T20:06:43.802Z,100.00
2023-02-24T20:09:17.838Z,100.00
2023-02-24T20:11:46.215Z,100.00
2023-02-24T20:14:16.993Z,100.00
2023-02-24T20:16:48.248Z,100.00
2023-02-24T20:19:18.272Z,100.00
2023-02-24T20:21:47.825Z,100.00
2023-02-24T20:24:16.696Z,100.00
2023-02-24T20:26:47.339Z,100.00
2023-02-24T20:29:16.380Z,100.00
2023-02-24T20:31:46.953Z,100.00
2023-02-24T20:34:17.001Z,100.00
2023-02-24T20:36:45.961Z,100.00
2023-02-24T20:39:15.241Z,100.00
2023-02-24T20:41:44.232Z,100.00
2023-02-24T20:44:15.419Z,100.00
2023-02-24T20:46:43.788Z,100.00
2023-02-24T20:49:14.710Z,100.00
2023-02-24T20:51:43.422Z,100.00
2023-02-24T20:54:12.051Z,100.00
2023-02-24T20:56:42.914Z,100.00
2023-02-24T20:59:20.417Z,100.00
2023-02-24T21:01:49.101Z,100.00
2023-02-24T21:04:20.125Z,100.00
2023-02-24T21:06:48.616Z,100.00
2023-02-24T21:09:19.824Z,100.00
2023-02-24T21:11:48.431Z,100.00
2023-02-24T21:14:17.030Z,100.00
2023-02-24T21:16:46.401Z,100.00
2023-02-24T21:19:14.894Z,100.00
2023-02-24T21:21:43.139Z,100.00
2023-02-24T21:24:13.041Z,100.00
2023-02-24T21:26:42.442Z,100.00
2023-02-24T21:29:12.172Z,100.00
2023-02-24T21:31:40.816Z,100.00
2023-02-24T21:34:12.295Z,100.00
2023-02-24T21:36:40.835Z,100.00
2023-02-24T21:39:14.743Z,100.00
2023-02-24T21:41:43.306Z,100.00
2023-02-24T21:44:12.650Z,100.00
2023-02-24T21:46:45.639Z,100.00
2023-02-24T21:49:14.777Z,100.00
2023-02-24T21:51:49.673Z,100.00
2023-02-24T21:54:19.718Z,100.00
2023-02-24T21:56:48.435Z,100.00
2023-02-24T21:59:17.897Z,100.00
2023-02-24T22:01:47.482Z,100.00
2023-02-24T22:04:18.152Z,100.00
2023-02-24T22:06:49.341Z,100.00
2023-02-24T22:09:19.765Z,100.00
2023-02-24T22:11:48.944Z,100.00
2023-02-24T22:14:19.094Z,100.00
2023-02-24T22:16:47.354Z,100.00
2023-02-24T22:19:21.148Z,100.00
2023-02-24T22:21:49.680Z,100.00
2023-02-24T22:24:18.274Z,100.00
2023-02-24T22:26:47.847Z,100.00
2023-02-24T22:29:16.073Z,100.00
2023-02-24T22:31:48.282Z,100.00
2023-02-24T22:34:18.322Z,100.00
2023-02-24T22:36:46.643Z,100.00
2023-02-24T22:39:16.860Z,100.00
2023-02-24T22:41:46.896Z,100.00
2023-02-24T22:44:19.291Z,100.00
2023-02-24T22:46:48.429Z,100.00
2023-02-24T22:49:17.505Z,100.00
2023-02-24T22:51:45.946Z,100.00
2023-02-24T22:54:19.350Z,100.00
2023-02-24T22:56:48.430Z,100.00
2023-02-24T22:59:17.386Z,100.00
2023-02-24T23:01:46.571Z,100.00
2023-02-24T23:04:16.912Z,100.00
2023-02-24T23:06:45.554Z,100.00
2023-02-24T23:09:19.853Z,100.00
2023-02-24T23:11:48.619Z,100.00
2023-02-24T23:14:17.172Z,100.00
2023-02-24T23:16:53.946Z,100.00
2023-02-24T23:19:23.083Z,100.00
2023-02-24T23:21:52.711Z,100.00
2023-02-24T23:24:22.394Z,100.00
2023-02-24T23:26:54.170Z,100.00
2023-02-24T23:29:24.756Z,100.00
2023-02-24T23:31:53.966Z,100.00
2023-02-24T23:34:22.385Z,100.00
2023-02-24T23:36:51.545Z,100.00
2023-02-24T23:39:24.174Z,100.00
2023-02-24T23:41:57.079Z,100.00
2023-02-24T23:44:26.417Z,100.00
2023-02-24T23:46:55.017Z,100.00
2023-02-24T23:49:24.360Z,100.00
2023-02-24T23:51:53.776Z,100.00
2023-02-24T23:54:22.367Z,100.00
2023-02-24T23:56:51.423Z,100.00
2023-02-24T23:59:21.767Z,100.00
